createdAt,value
2023-04-19T04:02:00.824Z,100780.63
2023-04-19T04:06:03.574Z,100779.91
2023-04-19T04:10:07.443Z,100788.63
2023-04-19T04:14:15.871Z,100782.59
2023-04-19T04:18:19.961Z,100787.22
2023-04-19T04:22:23.398Z,100789.56
2023-04-19T04:26:30.709Z,100797.47
2023-04-19T04:30:57.386Z,100799.22
2023-04-19T04:35:02.785Z,100796.03
2023-04-19T04:39:15.156Z,100807.16
2023-04-19T04:43:18.812Z,100807.56
2023-04-19T04:47:22.001Z,100813.25
2023-04-19T04:51:32.383Z,100810.69
2023-04-19T04:55:36.307Z,100818.88
2023-04-19T04:59:38.988Z,100819.44
2023-04-19T05:03:41.692Z,100813.66
2023-04-19T05:07:50.517Z,100817.88
2023-04-19T05:11:53.128Z,100812.66
2023-04-19T05:15:56.019Z,100808.63
2023-04-19T05:20:00.917Z,100815.75
2023-04-19T05:24:05.701Z,100812.53
2023-04-19T05:28:10.616Z,100817.00
2023-04-19T05:32:21.336Z,100818.84
2023-04-19T05:36:29.356Z,100827.06
2023-04-19T05:40:35.492Z,100822.28
2023-04-19T05:44:38.033Z,100820.13
2023-04-19T05:48:40.623Z,100817.91
2023-04-19T05:53:01.862Z,100823.22
2023-04-19T05:57:07.028Z,100817.31
2023-04-19T06:01:09.761Z,100800.03
2023-04-19T06:05:12.552Z,100812.31
2023-04-19T06:09:15.745Z,100808.38
2023-04-19T06:13:19.611Z,100809.09
2023-04-19T06:17:24.959Z,100805.63
2023-04-19T06:21:28.112Z,100805.19
2023-04-19T06:25:31.167Z,100810.63
2023-04-19T06:29:35.222Z,100798.47
2023-04-19T06:33:37.726Z,100802.75
2023-04-19T06:37:40.233Z,100782.28
2023-04-19T06:41:42.774Z,100788.91
2023-04-19T06:45:47.977Z,100781.06
2023-04-19T06:49:50.518Z,100783.50
2023-04-19T06:53:53.068Z,100773.94
2023-04-19T06:57:55.587Z,100776.66
2023-04-19T07:01:59.486Z,100785.06
2023-04-19T07:06:02.147Z,100765.75
2023-04-19T07:10:05.032Z,100770.78
2023-04-19T07:14:07.776Z,100768.41
2023-04-19T07:18:14.878Z,100767.94
2023-04-19T07:22:17.377Z,100759.69
2023-04-19T07:26:20.267Z,100763.91
2023-04-19T07:30:23.339Z,100752.28
2023-04-19T07:34:27.285Z,100751.97
2023-04-19T07:38:29.993Z,100752.47
2023-04-19T07:42:32.520Z,100748.16
2023-04-19T07:46:35.302Z,100748.16
2023-04-19T07:50:39.494Z,100746.31
2023-04-19T07:54:42.213Z,100737.03
2023-04-19T07:58:48.620Z,100739.56
2023-04-19T08:02:57.883Z,100737.22
2023-04-19T08:07:03.797Z,100738.91
2023-04-19T08:11:06.801Z,100745.31
2023-04-19T08:15:29.179Z,100740.56
2023-04-19T08:19:32.529Z,100726.78
2023-04-19T08:23:47.407Z,100742.28
2023-04-19T08:27:50.947Z,100746.31
2023-04-19T08:31:53.544Z,100738.22
2023-04-19T08:35:56.094Z,100742.59
2023-04-19T08:39:59.949Z,100742.09
2023-04-19T08:44:03.941Z,100752.16
2023-04-19T08:48:11.547Z,100735.00
2023-04-19T08:52:14.656Z,100729.91
2023-04-19T08:56:31.978Z,100725.97
2023-04-19T09:00:41.147Z,100721.47
2023-04-19T09:04:43.864Z,100729.16
2023-04-19T09:08:46.580Z,100719.59
2023-04-19T09:13:05.727Z,100724.66
2023-04-19T09:17:13.479Z,100727.06
2023-04-19T09:21:28.797Z,100727.56
2023-04-19T09:25:52.405Z,100715.16
2023-04-19T09:29:56.236Z,100713.28
2023-04-19T09:33:59.053Z,100711.59
2023-04-19T09:38:06.344Z,100710.53
2023-04-19T09:42:09.586Z,100696.59
2023-04-19T09:46:31.564Z,100689.97
2023-04-19T09:50:42.376Z,100685.59
2023-04-19T09:54:57.099Z,100684.38
2023-04-19T10:03:07.223Z,100662.50
2023-04-19T10:07:29.198Z,100663.38
2023-04-19T10:11:38.406Z,100650.56
2023-04-19T10:15:51.239Z,100651.16
2023-04-19T10:20:02.978Z,100655.72
2023-04-19T10:24:06.806Z,100634.66
2023-04-19T10:28:09.325Z,100640.63
2023-04-19T10:32:14.653Z,100625.44
2023-04-19T10:36:19.303Z,100626.38
2023-04-19T10:40:55.136Z,100596.00
2023-04-19T10:45:35.428Z,100612.94
2023-04-19T10:49:46.127Z,100602.03
2023-04-19T10:53:52.398Z,100593.09
2023-04-19T10:58:06.308Z,100586.66
2023-04-19T11:02:32.321Z,100574.31
2023-04-19T11:06:35.465Z,100572.75
2023-04-19T11:10:39.786Z,100570.94
2023-04-19T11:14:44.069Z,100554.84
2023-04-19T11:18:46.585Z,100553.44
2023-04-19T11:22:49.082Z,100550.13
2023-04-19T11:26:55.349Z,100578.34
2023-04-19T11:30:58.353Z,100534.47
2023-04-19T11:35:08.106Z,100525.84
2023-04-19T11:39:10.776Z,100532.41
2023-04-19T11:43:14.658Z,100523.28
2023-04-19T11:47:17.356Z,100535.91
2023-04-19T11:51:20.311Z,100525.25
2023-04-19T11:55:23.640Z,100522.41
2023-04-19T11:59:27.489Z,100506.88
2023-04-19T12:03:30.193Z,100468.66
2023-04-19T12:07:33.031Z,100495.56
2023-04-19T12:11:45.320Z,100502.16
2023-04-19T12:15:49.547Z,100473.66
2023-04-19T12:19:52.200Z,100490.50
2023-04-19T12:23:56.446Z,100484.81
2023-04-19T12:27:59.093Z,100473.00
2023-04-19T12:32:03.339Z,100462.31
2023-04-19T12:36:06.487Z,100461.66
2023-04-19T12:40:10.525Z,100470.41
2023-04-19T12:44:13.064Z,100456.00
2023-04-19T12:48:16.946Z,100469.13
2023-04-19T12:52:20.277Z,100462.72
2023-04-19T12:56:22.834Z,100458.63
2023-04-19T13:00:25.653Z,100459.16
2023-04-19T13:04:29.621Z,100453.72
2023-04-19T13:08:44.184Z,100449.50
2023-04-19T13:12:48.987Z,100421.72
2023-04-19T13:16:51.495Z,100433.75
2023-04-19T13:20:55.394Z,100416.72
2023-04-19T13:24:57.900Z,100425.41
2023-04-19T13:29:00.649Z,100422.84
2023-04-19T13:33:03.246Z,100410.09
2023-04-19T13:37:07.460Z,100419.88
2023-04-19T13:41:10.663Z,100422.97
2023-04-19T13:45:13.670Z,100389.00
2023-04-19T13:49:16.504Z,100394.44
2023-04-19T13:53:20.366Z,100396.31
2023-04-19T13:57:22.884Z,100393.41
2023-04-19T14:01:25.522Z,100401.13
2023-04-19T14:05:28.283Z,100390.50
2023-04-19T14:09:32.177Z,100374.84
2023-04-19T14:13:34.742Z,100382.63
2023-04-19T14:17:37.286Z,100371.69
2023-04-19T14:21:39.809Z,100389.84
2023-04-19T14:25:43.639Z,100378.72
2023-04-19T14:29:46.165Z,100385.78
2023-04-19T14:33:48.666Z,100379.78
2023-04-19T14:37:51.180Z,100370.66
2023-04-19T14:41:55.050Z,100371.97
2023-04-19T14:45:57.640Z,100373.94
2023-04-19T14:50:00.677Z,100360.84
2023-04-19T14:54:03.415Z,100360.22
2023-04-19T14:58:07.281Z,100362.13
2023-04-19T15:02:10.698Z,100367.63
2023-04-19T15:06:13.362Z,100352.44
2023-04-19T15:10:16.171Z,100338.22
2023-04-19T15:14:20.451Z,100340.78
2023-04-19T15:18:22.949Z,100355.28
2023-04-19T15:22:25.474Z,100329.28
2023-04-19T15:26:27.973Z,100354.84
2023-04-19T15:30:31.888Z,100340.59
2023-04-19T15:34:34.502Z,100343.31
2023-04-19T15:38:37.290Z,100340.97
2023-04-19T15:42:39.795Z,100342.94
2023-04-19T15:46:43.714Z,100340.16
2023-04-19T15:50:46.300Z,100334.75
2023-04-19T15:54:50.594Z,100329.53
2023-04-19T15:58:53.162Z,100328.06
2023-04-19T16:02:57.321Z,100338.06
2023-04-19T16:07:00.477Z,100341.38
2023-04-19T16:11:03.412Z,100325.16
2023-04-19T16:15:07.105Z,100319.88
2023-04-19T16:19:11.042Z,100312.38
2023-04-19T16:23:14.444Z,100308.69
2023-04-19T16:27:16.842Z,100334.31
2023-04-19T16:31:19.754Z,100331.78
2023-04-19T16:35:24.297Z,100330.97
2023-04-19T16:39:26.826Z,100325.06
2023-04-19T16:43:29.349Z,100335.84
2023-04-19T16:47:32.097Z,100311.16
2023-04-19T16:51:36.059Z,100308.22
2023-04-19T16:55:39.085Z,100308.97
2023-04-19T16:59:41.682Z,100310.81
2023-04-19T17:03:45.530Z,100308.00
2023-04-19T17:07:49.579Z,100301.03
2023-04-19T17:11:52.127Z,100281.94
2023-04-19T17:15:54.752Z,100287.38
2023-04-19T17:19:57.667Z,100278.41
2023-04-19T17:24:01.694Z,100287.25
2023-04-19T17:28:04.286Z,100287.75
2023-04-19T17:32:07.699Z,100287.41
2023-04-19T17:36:10.125Z,100296.06
2023-04-19T17:40:14.213Z,100298.41
2023-04-19T17:44:16.759Z,100301.09
2023-04-19T17:48:19.303Z,100304.56
2023-04-19T17:52:21.797Z,100291.78
2023-04-19T17:56:25.820Z,100294.06
2023-04-19T18:00:28.426Z,100300.94
2023-04-19T18:04:31.093Z,100293.75
2023-04-19T18:08:33.684Z,100299.72
2023-04-19T18:12:37.566Z,100283.53
2023-04-19T18:16:40.126Z,100294.34
2023-04-19T18:20:42.694Z,100305.69
2023-04-19T18:24:47.305Z,100298.09
2023-04-19T18:28:51.239Z,100330.78
2023-04-19T18:32:53.810Z,100347.06
2023-04-19T18:36:59.421Z,100304.78
2023-04-19T18:41:01.930Z,100302.78
2023-04-19T18:45:07.183Z,100301.25
2023-04-19T18:49:10.121Z,100302.03
2023-04-19T18:53:12.723Z,100315.41
2023-04-19T19:01:22.156Z,100324.19
2023-04-19T19:05:25.097Z,100338.44
2023-04-19T19:09:27.720Z,100310.84
2023-04-19T19:13:30.403Z,100306.34
2023-04-19T19:17:34.384Z,100302.75
2023-04-19T19:21:36.986Z,100295.28
2023-04-19T19:25:40.678Z,100281.22
2023-04-19T19:29:43.189Z,100292.09
2023-04-19T19:33:57.028Z,100277.53
2023-04-19T19:38:06.899Z,100268.44
2023-04-19T19:42:09.402Z,100277.03
2023-04-19T19:46:11.991Z,100268.38
2023-04-19T19:54:21.461Z,100268.88
2023-04-19T19:58:47.724Z,100280.88
2023-04-19T20:10:59.012Z,100279.09
2023-04-19T20:15:01.542Z,100297.78
2023-04-19T20:19:09.497Z,100293.09
2023-04-19T20:23:13.368Z,100285.34
2023-04-19T20:27:16.232Z,100277.78
2023-04-19T20:31:18.962Z,100281.81
2023-04-19T20:35:21.490Z,100286.63
2023-04-19T20:39:26.595Z,100283.75
2023-04-19T20:43:29.130Z,100291.81
2023-04-19T20:47:32.034Z,100292.97
2023-04-19T20:51:34.627Z,100291.56
2023-04-19T20:55:39.495Z,100292.78
2023-04-19T20:59:42.071Z,100288.56
